Time;durP1;ratioP1;P1;durP2;ratioP2;P2;SDS_P1;SDS_P2;PMS_P1;PMS_P2;Temp;Humidity;BMP_temperature;BMP_pressure;BME280_temperature;BME280_humidity;BME280_pressure;Samples;Min_cycle;Max_cycle;Signal;HPM_P1;HPM_P2
2023/11/08 00:01:31;;;;;;;3.33;1.63;;;;;;;5.55;88.30;95601.09;6142266;23;20163;-82
2023/11/08 00:03:56;;;;;;;6.80;2.00;;;;;;;5.72;87.89;95600.66;6142422;23;20238;-84
2023/11/08 00:06:21;;;;;;;4.93;1.43;;;;;;;5.40;88.67;95598.75;6141201;23;20208;-82
2023/11/08 00:08:50;;;;;;;5.40;1.80;;;;;;;5.76;87.46;95596.91;6141506;23;20159;-82
2023/11/08 00:11:16;;;;;;;3.83;1.57;;;;;;;5.74;86.96;95588.47;6189879;23;20214;-81
2023/11/08 00:13:41;;;;;;;4.90;1.33;;;;;;;5.67;86.97;95595.03;6140032;23;20165;-83
2023/11/08 00:16:07;;;;;;;4.57;1.00;;;;;;;5.79;86.09;95590.69;6163751;23;20163;-81
2023/11/08 00:18:32;;;;;;;5.67;1.30;;;;;;;5.73;86.06;95596.31;6162499;23;20219;-81
2023/11/08 00:20:58;;;;;;;3.47;0.90;;;;;;;5.63;85.87;95593.63;6138050;23;20182;-80
2023/11/08 00:23:23;;;;;;;4.33;1.20;;;;;;;6.16;84.09;95593.88;6158860;23;20218;-81
2023/11/08 00:25:49;;;;;;;3.57;1.10;;;;;;;5.87;85.68;95599.50;6137835;23;20610;-80
2023/11/08 00:28:14;;;;;;;1.00;0.60;;;;;;;5.85;86.52;95603.13;6162161;23;20205;-80
2023/11/08 00:30:40;;;;;;;1.80;0.90;;;;;;;5.85;87.01;95601.38;6160886;23;20245;-81
2023/11/08 00:33:06;;;;;;;3.97;1.00;;;;;;;5.94;87.33;95602.44;6134729;23;20487;-80
2023/11/08 00:35:31;;;;;;;5.43;1.17;;;;;;;6.03;86.65;95598.34;6157836;23;20177;-81
2023/11/08 00:37:57;;;;;;;3.47;0.80;;;;;;;5.95;87.17;95612.63;6183360;23;20351;-80
2023/11/08 00:40:22;;;;;;;2.20;1.20;;;;;;;5.80;88.66;95613.78;6157721;23;20183;-80
2023/11/08 00:42:48;;;;;;;2.17;1.30;;;;;;;5.99;87.66;95607.25;6158233;23;20627;-80
2023/11/08 00:45:13;;;;;;;4.07;1.03;;;;;;;6.04;87.48;95603.38;6157512;23;20162;-82
2023/11/08 00:47:39;;;;;;;3.90;1.30;;;;;;;5.85;88.93;95603.13;6185146;23;20154;-80
2023/11/08 00:50:04;;;;;;;4.77;1.37;;;;;;;5.89;88.58;95607.91;6159285;23;20186;-80
2023/11/08 00:52:30;;;;;;;3.00;1.30;;;;;;;5.80;87.95;95602.66;6184926;23;20540;-82
2023/11/08 00:54:55;;;;;;;5.30;1.40;;;;;;;5.81;88.16;95597.38;6158152;23;20151;-80
2023/11/08 00:57:21;;;;;;;5.47;1.47;;;;;;;5.68;88.70;95599.25;6159719;23;20147;-80
2023/11/08 00:59:47;;;;;;;1.93;1.50;;;;;;;5.55;89.27;95604.50;6134237;23;20186;-80
2023/11/08 01:02:12;;;;;;;4.20;1.67;;;;;;;5.59;89.58;95602.53;6160821;23;20163;-81
2023/11/08 01:04:37;;;;;;;4.03;1.37;;;;;;;5.54;89.28;95594.31;6159968;23;20158;-80
2023/11/08 01:07:04;;;;;;;4.77;1.53;;;;;;;5.48;89.54;95600.78;6136035;23;20167;-81
2023/11/08 01:09:31;;;;;;;3.00;1.67;;;;;;;5.37;90.67;95595.56;6160788;23;20173;-81
2023/11/08 01:11:58;;;;;;;1.90;1.23;;;;;;;5.48;90.09;95608.50;6160818;23;20501;-81
2023/11/08 01:14:24;;;;;;;3.70;1.43;;;;;;;5.43;89.62;95604.59;6160757;23;20249;-80
2023/11/08 01:16:49;;;;;;;3.33;1.27;;;;;;;5.49;89.34;95602.41;6135238;23;20506;-79
2023/11/08 01:19:14;;;;;;;2.93;1.20;;;;;;;5.42;90.04;95606.38;6136361;23;20281;-79
2023/11/08 01:21:45;;;;;;;5.93;1.30;;;;;;;5.42;89.82;95598.66;6160795;23;20209;-80
2023/11/08 01:24:12;;;;;;;2.60;1.40;;;;;;;5.44;89.83;95603.66;6160152;23;20698;-79
2023/11/08 01:26:37;;;;;;;1.80;1.20;;;;;;;5.36;90.14;95592.19;6160707;23;20915;-80
2023/11/08 01:29:03;;;;;;;1.60;1.20;;;;;;;5.36;90.40;95593.94;6161229;23;20161;-80
2023/11/08 01:31:29;;;;;;;3.07;1.27;;;;;;;5.29;90.47;95593.56;6161585;23;20192;-83
2023/11/08 01:33:55;;;;;;;4.73;1.50;;;;;;;5.29;90.30;95593.56;6160630;23;20510;-80
2023/11/08 01:36:20;;;;;;;3.33;1.63;;;;;;;5.27;90.55;95598.03;6160828;23;20243;-84
2023/11/08 01:38:46;;;;;;;2.43;1.60;;;;;;;5.33;90.76;95600.16;6136404;23;20179;-81
2023/11/08 01:41:11;;;;;;;2.00;1.30;;;;;;;5.10;92.57;95588.16;6160408;23;20214;-78
2023/11/08 01:43:38;;;;;;;5.27;1.63;;;;;;;4.97;93.75;95595.97;6161038;23;20158;-80
2023/11/08 01:46:18;;;;;;;3.63;1.73;;;;;;;5.22;92.04;95594.97;6160314;23;20166;-81
2023/11/08 01:48:44;;;;;;;2.57;1.30;;;;;;;5.16;92.88;95587.72;6186705;23;20586;-80
2023/11/08 01:51:09;;;;;;;3.73;1.40;;;;;;;5.14;93.03;95588.75;6161075;23;20228;-80
2023/11/08 01:53:39;;;;;;;2.47;1.63;;;;;;;5.14;92.41;95587.00;6135971;23;20252;-81
2023/11/08 01:56:06;;;;;;;3.83;1.87;;;;;;;5.09;92.29;95589.91;6160338;23;20134;-80
2023/11/08 01:58:38;;;;;;;3.77;1.50;;;;;;;5.14;92.42;95587.00;6135434;23;20182;-80
2023/11/08 02:01:04;;;;;;;2.60;1.37;;;;;;;5.01;92.66;95593.97;6173908;23;20169;-80
2023/11/08 02:03:30;;;;;;;6.43;1.70;;;;;;;4.97;93.39;95590.81;6183754;23;20161;-80
2023/11/08 02:05:56;;;;;;;7.27;1.50;;;;;;;5.05;92.98;95592.84;6158904;23;20159;-81
2023/11/08 02:08:22;;;;;;;5.43;1.43;;;;;;;5.06;91.81;95592.72;6159039;23;20169;-79
2023/11/08 02:10:47;;;;;;;4.47;1.50;;;;;;;5.07;91.69;95588.38;6175988;23;20186;-82
2023/11/08 02:13:13;;;;;;;3.53;1.40;;;;;;;5.00;92.78;95587.19;6171081;23;20162;-83
2023/11/08 02:15:40;;;;;;;1.17;1.07;;;;;;;4.98;92.48;95584.72;6169788;23;20205;-81
2023/11/08 02:18:05;;;;;;;2.90;1.10;;;;;;;4.91;92.63;95590.44;6170977;23;20173;-82
2023/11/08 02:20:31;;;;;;;4.23;1.40;;;;;;;5.01;92.53;95588.81;6170097;23;20178;-82
2023/11/08 02:22:56;;;;;;;2.90;1.50;;;;;;;4.95;92.83;95584.16;6169883;23;20218;-82
2023/11/08 02:25:21;;;;;;;1.17;1.07;;;;;;;4.91;93.21;95583.53;6169403;23;20168;-83
2023/11/08 02:27:47;;;;;;;4.03;1.20;;;;;;;5.03;92.87;95584.38;6169046;23;20768;-83
2023/11/08 02:30:16;;;;;;;6.80;1.40;;;;;;;5.07;93.27;95581.47;6170317;23;20174;-83
2023/11/08 02:32:41;;;;;;;2.83;1.00;;;;;;;5.24;92.27;95585.38;6170020;23;20168;-83
2023/11/08 02:35:08;;;;;;;3.23;1.40;;;;;;;5.13;92.63;95582.78;6144552;23;20472;-81
2023/11/08 02:37:34;;;;;;;3.27;1.40;;;;;;;5.07;93.56;95576.34;6144313;23;20185;-82
2023/11/08 02:40:00;;;;;;;3.30;1.40;;;;;;;5.06;93.20;95574.69;6143058;23;20195;-83
2023/11/08 02:42:25;;;;;;;3.90;1.10;;;;;;;5.21;92.18;95572.75;6144468;23;20200;-83
2023/11/08 02:44:50;;;;;;;2.13;0.93;;;;;;;5.02;93.30;95580.16;6167781;23;20162;-80
2023/11/08 02:47:16;;;;;;;1.27;0.90;;;;;;;5.12;93.09;95583.69;6192984;23;20169;-83
2023/11/08 02:49:41;;;;;;;3.33;1.30;;;;;;;5.19;92.11;95589.22;6167923;23;20178;-82
2023/11/08 02:52:08;;;;;;;2.33;1.20;;;;;;;5.15;92.60;95580.09;6167837;23;20253;-81
2023/11/08 02:54:34;;;;;;;1.10;0.93;;;;;;;4.99;92.67;95585.56;6167746;23;20261;-83
2023/11/08 02:56:59;;;;;;;3.70;1.40;;;;;;;5.13;91.82;95587.94;6142049;23;20606;-82
2023/11/08 02:59:24;;;;;;;1.70;1.10;;;;;;;5.11;92.05;95582.88;6167761;23;20193;-80
2023/11/08 03:01:50;;;;;;;1.63;0.97;;;;;;;5.06;92.24;95581.59;6167018;23;20165;-82
2023/11/08 03:04:15;;;;;;;2.50;1.00;;;;;;;5.02;92.69;95591.28;6167218;23;20154;-82
2023/11/08 03:06:43;;;;;;;3.10;1.00;;;;;;;5.02;92.36;95587.88;6142194;23;20162;-82
2023/11/08 03:09:08;;;;;;;3.67;1.10;;;;;;;5.14;91.87;95588.75;6166646;23;20210;-80
2023/11/08 03:11:33;;;;;;;3.33;1.20;;;;;;;4.96;92.81;95586.59;6166702;23;20708;-81
2023/11/08 03:14:01;;;;;;;2.47;1.03;;;;;;;5.04;92.86;95592.00;6166306;23;20154;-82
2023/11/08 03:16:27;;;;;;;2.17;1.03;;;;;;;5.08;93.13;95590.03;6165915;23;20277;-80
2023/11/08 03:18:52;;;;;;;1.90;1.10;;;;;;;5.03;93.11;95590.34;6165735;23;20194;-82
2023/11/08 03:21:17;;;;;;;2.03;0.97;;;;;;;5.04;92.81;95591.19;6166438;23;20186;-81
2023/11/08 03:23:43;;;;;;;6.10;1.67;;;;;;;5.15;92.57;95591.22;6140147;23;20216;-80
2023/11/08 03:26:08;;;;;;;6.43;1.00;;;;;;;5.17;92.97;95586.78;6164834;23;20220;-81
2023/11/08 03:28:33;;;;;;;2.00;0.90;;;;;;;5.27;92.38;95599.78;6165220;23;20480;-82
2023/11/08 03:30:59;;;;;;;2.37;0.97;;;;;;;5.29;91.77;95603.88;6164872;23;20644;-80
2023/11/08 03:33:24;;;;;;;2.97;1.00;;;;;;;5.35;91.99;95613.72;6165224;23;20630;-81
2023/11/08 03:35:49;;;;;;;5.20;1.10;;;;;;;5.12;93.11;95612.00;6164541;23;20209;-80
2023/11/08 03:38:15;;;;;;;3.53;1.40;;;;;;;5.29;92.52;95616.75;6163513;23;20186;-82
2023/11/08 03:40:41;;;;;;;7.13;1.30;;;;;;;5.38;92.07;95613.47;6165695;23;20196;-82
2023/11/08 03:43:06;;;;;;;2.23;1.07;;;;;;;5.42;91.83;95615.84;6140090;23;20755;-81
2023/11/08 03:45:32;;;;;;;2.43;1.17;;;;;;;5.51;92.46;95608.25;6164384;23;20165;-82
2023/11/08 03:47:57;;;;;;;4.63;1.63;;;;;;;5.49;92.62;95611.88;6164776;23;20491;-81
2023/11/08 03:50:22;;;;;;;4.13;1.30;;;;;;;5.56;92.09;95607.91;6163743;23;20178;-82
2023/11/08 03:52:48;;;;;;;3.37;1.50;;;;;;;5.46;92.45;95619.81;6163580;23;20158;-81
2023/11/08 03:55:13;;;;;;;1.20;1.00;;;;;;;5.49;93.13;95614.47;6163227;23;20201;-82
2023/11/08 03:57:38;;;;;;;1.73;1.43;;;;;;;5.58;92.79;95630.03;6164537;23;20555;-82
2023/11/08 04:00:04;;;;;;;3.73;1.20;;;;;;;5.69;92.50;95624.09;6163547;23;20651;-81
2023/11/08 04:02:29;;;;;;;4.00;1.23;;;;;;;5.70;92.01;95628.28;6189565;23;20173;-81
2023/11/08 04:04:57;;;;;;;3.87;1.37;;;;;;;5.78;91.84;95630.28;6139184;23;20598;-81
2023/11/08 04:07:22;;;;;;;2.40;1.37;;;;;;;5.72;92.47;95623.03;6164002;23;20157;-81
2023/11/08 04:09:48;;;;;;;3.13;1.10;;;;;;;5.83;92.21;95631.59;6138922;23;20496;-82
2023/11/08 04:12:13;;;;;;;3.27;1.20;;;;;;;5.54;93.55;95631.19;6163224;23;20591;-80
2023/11/08 04:14:39;;;;;;;4.10;1.40;;;;;;;5.78;92.72;95636.28;6163314;23;20249;-80
2023/11/08 04:17:08;;;;;;;2.33;1.60;;;;;;;5.84;91.85;95632.41;6190860;23;20198;-81
2023/11/08 04:19:33;;;;;;;2.07;1.43;;;;;;;5.58;93.79;95639.53;6137727;23;20185;-81
2023/11/08 04:21:59;;;;;;;2.47;1.60;;;;;;;5.67;94.02;95646.56;6160899;23;20668;-79
2023/11/08 04:24:24;;;;;;;4.27;1.60;;;;;;;5.68;93.55;95638.72;6160503;23;20154;-81
2023/11/08 04:26:51;;;;;;;4.03;1.40;;;;;;;5.76;92.38;95638.16;6159654;23;20158;-81
2023/11/08 04:29:17;;;;;;;4.53;1.50;;;;;;;5.59;93.30;95641.16;6143533;23;20182;-82
2023/11/08 04:31:42;;;;;;;3.80;1.50;;;;;;;5.75;92.70;95641.66;6174465;23;20173;-83
2023/11/08 04:34:08;;;;;;;3.83;1.30;;;;;;;5.51;93.74;95643.50;6198857;23;20165;-83
2023/11/08 04:36:33;;;;;;;1.83;1.30;;;;;;;5.60;93.75;95647.97;6198296;23;20739;-84
2023/11/08 04:38:59;;;;;;;4.27;1.40;;;;;;;5.49;93.89;95641.03;6195133;23;20232;-83
2023/11/08 04:41:26;;;;;;;1.47;1.37;;;;;;;5.60;93.29;95638.47;6171667;23;20690;-83
2023/11/08 04:43:51;;;;;;;4.30;1.60;;;;;;;5.47;93.59;95635.16;6170515;23;20204;-83
2023/11/08 04:46:17;;;;;;;4.53;1.30;;;;;;;5.52;93.75;95640.81;6195050;23;20511;-84
2023/11/08 04:48:44;;;;;;;2.97;1.50;;;;;;;5.47;93.84;95637.72;6143513;23;20189;-84
2023/11/08 04:51:09;;;;;;;6.73;2.00;;;;;;;5.40;93.85;95636.56;6167246;23;20199;-81
2023/11/08 04:53:35;;;;;;;5.53;1.70;;;;;;;5.43;94.23;95636.34;6141777;23;20151;-82
2023/11/08 04:56:00;;;;;;;3.00;1.67;;;;;;;5.54;93.22;95636.34;6141170;23;20177;-83
2023/11/08 04:58:25;;;;;;;3.90;1.30;;;;;;;5.46;93.54;95641.25;6166803;23;20175;-81
2023/11/08 05:00:51;;;;;;;4.43;1.40;;;;;;;5.50;93.45;95634.13;6164876;23;20183;-84
2023/11/08 05:03:16;;;;;;;6.53;1.93;;;;;;;5.43;93.33;95645.81;6165982;23;20495;-84
2023/11/08 05:05:42;;;;;;;2.93;1.30;;;;;;;5.53;92.84;95646.78;6139654;23;20165;-83
2023/11/08 05:08:07;;;;;;;3.57;1.83;;;;;;;5.49;93.19;95637.66;6164220;23;20226;-83
2023/11/08 05:10:33;;;;;;;3.43;1.47;;;;;;;5.64;93.05;95641.63;6163900;23;20204;-82
2023/11/08 05:13:01;;;;;;;3.40;1.50;;;;;;;5.62;92.41;95641.75;6140301;23;20661;-83
2023/11/08 05:15:29;;;;;;;2.20;1.30;;;;;;;5.63;92.68;95651.13;6140122;23;20188;-83
2023/11/08 05:17:57;;;;;;;8.53;2.93;;;;;;;5.46;93.36;95640.44;6164567;23;20175;-82
2023/11/08 05:20:25;;;;;;;15.33;5.57;;;;;;;5.58;92.54;95640.34;6138034;23;20258;-82
2023/11/08 05:22:50;;;;;;;11.20;5.97;;;;;;;5.54;93.05;95648.41;6140069;23;20163;-81
2023/11/08 05:25:16;;;;;;;11.63;6.53;;;;;;;5.50;92.93;95650.41;6138345;23;20173;-81
2023/11/08 05:27:41;;;;;;;8.73;5.27;;;;;;;5.49;92.91;95645.38;6189451;23;20159;-78
2023/11/08 05:30:09;;;;;;;16.90;10.07;;;;;;;5.46;93.56;95640.44;6141380;23;20171;-82
2023/11/08 05:32:37;;;;;;;13.97;7.27;;;;;;;5.48;93.30;95643.72;6161919;23;20195;-82
2023/11/08 05:35:03;;;;;;;9.13;4.20;;;;;;;5.43;93.47;95638.09;6138448;23;20162;-81
2023/11/08 05:37:29;;;;;;;3.20;1.67;;;;;;;5.52;93.46;95645.13;6139673;23;20610;-83
2023/11/08 05:39:54;;;;;;;5.60;2.37;;;;;;;5.48;94.11;95639.41;6164496;23;20178;-82
2023/11/08 05:42:23;;;;;;;3.23;1.80;;;;;;;5.61;93.10;95644.44;6138429;23;20166;-81
2023/11/08 05:44:58;;;;;;;3.53;2.10;;;;;;;5.59;93.05;95639.41;6164964;23;20233;-82
2023/11/08 05:47:23;;;;;;;3.23;2.30;;;;;;;5.64;92.81;95639.88;6165038;23;20177;-81
2023/11/08 05:49:49;;;;;;;4.20;2.23;;;;;;;5.50;92.86;95645.25;6141388;23;20292;-82
2023/11/08 05:52:16;;;;;;;3.47;2.00;;;;;;;5.61;92.31;95644.44;6140496;23;20803;-82
2023/11/08 05:54:41;;;;;;;4.00;1.70;;;;;;;5.57;92.30;95645.63;6139063;23;20192;-80
2023/11/08 05:57:07;;;;;;;4.53;1.40;;;;;;;5.53;92.94;95639.88;6140582;23;20685;-81
2023/11/08 05:59:32;;;;;;;1.83;1.53;;;;;;;5.60;92.62;95648.78;6164631;23;20523;-82
2023/11/08 06:01:57;;;;;;;6.00;1.60;;;;;;;5.57;92.24;95643.06;6163839;23;20606;-81
2023/11/08 06:04:23;;;;;;;6.13;1.70;;;;;;;5.64;91.97;95649.34;6161710;23;20618;-82
2023/11/08 06:06:48;;;;;;;3.50;1.47;;;;;;;5.61;92.46;95649.59;6163382;23;20159;-83
2023/11/08 06:09:14;;;;;;;2.40;1.80;;;;;;;5.54;93.16;95653.56;6163586;23;20214;-81
2023/11/08 06:11:41;;;;;;;4.03;1.40;;;;;;;5.61;92.49;95650.41;6141239;23;20166;-80
2023/11/08 06:14:06;;;;;;;4.73;1.93;;;;;;;5.55;91.87;95656.03;6165407;23;20151;-81
2023/11/08 06:16:31;;;;;;;2.87;1.40;;;;;;;5.54;92.54;95661.28;6165540;23;20201;-82
2023/11/08 06:18:57;;;;;;;4.17;1.40;;;;;;;5.52;92.60;95670.88;6188858;23;20331;-82
2023/11/08 06:21:22;;;;;;;1.63;1.17;;;;;;;5.51;93.08;95669.25;6139331;23;20495;-83
2023/11/08 06:23:48;;;;;;;3.60;1.33;;;;;;;5.45;92.09;95664.53;6188087;23;20515;-81
2023/11/08 06:26:17;;;;;;;4.77;1.63;;;;;;;5.52;92.69;95673.47;6190203;23;20234;-83
2023/11/08 06:28:43;;;;;;;5.53;1.70;;;;;;;5.50;92.06;95665.03;6138367;23;20158;-81
2023/11/08 06:31:08;;;;;;;2.70;1.20;;;;;;;5.61;91.17;95665.06;6138353;23;20179;-82
2023/11/08 06:33:34;;;;;;;5.70;1.30;;;;;;;5.55;90.73;95668.06;6163725;23;20162;-83
2023/11/08 06:36:00;;;;;;;2.87;1.30;;;;;;;5.56;91.28;95670.53;6161135;23;20162;-82
2023/11/08 06:38:27;;;;;;;3.93;1.40;;;;;;;5.53;91.16;95673.34;6161727;23;20524;-81
2023/11/08 06:40:53;;;;;;;4.33;1.30;;;;;;;5.53;91.15;95667.38;6161052;23;20175;-81
2023/11/08 06:43:18;;;;;;;2.90;1.97;;;;;;;5.53;90.60;95670.78;6160971;23;20171;-81
2023/11/08 06:45:43;;;;;;;2.33;1.53;;;;;;;5.35;91.66;95672.94;6159613;23;20793;-82
2023/11/08 06:48:09;;;;;;;3.33;2.03;;;;;;;5.50;90.79;95683.06;6160280;23;20602;-82
2023/11/08 06:50:34;;;;;;;5.80;1.60;;;;;;;5.49;90.52;95682.25;6160249;23;20232;-81
2023/11/08 06:52:59;;;;;;;5.47;2.00;;;;;;;5.51;90.55;95680.38;6160329;23;20158;-82
2023/11/08 06:55:25;;;;;;;6.47;2.17;;;;;;;5.56;91.22;95682.59;6185630;23;20196;-80
2023/11/08 06:57:50;;;;;;;4.30;1.70;;;;;;;5.82;90.32;95693.53;6160323;23;20165;-80
2023/11/08 07:00:17;;;;;;;2.87;1.30;;;;;;;5.88;90.10;95693.91;6159800;23;20177;-82
2023/11/08 07:02:42;;;;;;;4.40;1.33;;;;;;;5.86;90.09;95694.97;6137652;23;20793;-81
2023/11/08 07:05:09;;;;;;;3.47;1.50;;;;;;;6.03;89.82;95693.72;6113153;23;20162;-81
2023/11/08 07:07:36;;;;;;;3.87;1.50;;;;;;;6.09;89.35;95706.13;6186443;23;20238;-82
2023/11/08 07:10:05;;;;;;;3.60;1.37;;;;;;;6.08;89.39;95714.81;6161031;23;20167;-81
2023/11/08 07:12:30;;;;;;;2.30;1.80;;;;;;;6.10;89.58;95713.78;6162460;23;20212;-80
2023/11/08 07:14:56;;;;;;;3.27;1.47;;;;;;;6.22;88.42;95717.19;6161223;23;20162;-82
2023/11/08 07:17:21;;;;;;;3.37;1.60;;;;;;;6.26;89.00;95718.56;6186380;23;20170;-81
2023/11/08 07:19:46;;;;;;;3.37;1.47;;;;;;;5.81;90.48;95725.41;6161771;23;20194;-81
2023/11/08 07:22:12;;;;;;;2.90;1.63;;;;;;;5.92;90.26;95722.91;6160118;23;20165;-81
2023/11/08 07:24:41;;;;;;;3.27;1.37;;;;;;;6.02;90.26;95730.75;6160218;23;20176;-81
2023/11/08 07:27:07;;;;;;;2.50;1.77;;;;;;;6.08;90.04;95727.69;6160419;23;20154;-81
2023/11/08 07:29:32;;;;;;;1.97;1.40;;;;;;;6.06;89.68;95730.41;6160565;23;20185;-83
2023/11/08 07:31:57;;;;;;;1.60;1.40;;;;;;;6.23;88.80;95729.94;6161883;23;20174;-80
2023/11/08 07:34:23;;;;;;;3.90;1.97;;;;;;;6.22;88.92;95738.63;6162393;23;20154;-80
2023/11/08 07:36:49;;;;;;;4.57;1.40;;;;;;;6.24;89.30;95738.50;6159346;23;20165;-79
2023/11/08 07:39:15;;;;;;;4.07;1.40;;;;;;;6.21;89.71;95734.41;6162222;23;20217;-81
2023/11/08 07:41:41;;;;;;;2.97;1.50;;;;;;;6.31;89.35;95731.13;6136791;23;20213;-79
2023/11/08 07:44:07;;;;;;;3.20;1.47;;;;;;;6.36;88.47;95718.69;6136079;23;20205;-80
2023/11/08 07:46:33;;;;;;;2.17;1.30;;;;;;;6.20;88.77;95717.31;6159700;23;20157;-81
2023/11/08 07:48:58;;;;;;;2.07;1.20;;;;;;;6.31;88.23;95718.22;6160112;23;20158;-80
2023/11/08 07:51:25;;;;;;;1.53;1.30;;;;;;;6.36;87.83;95721.25;6160567;23;20615;-80
2023/11/08 07:53:51;;;;;;;3.50;1.30;;;;;;;6.41;87.77;95726.91;6159853;23;20221;-78
2023/11/08 07:56:16;;;;;;;4.47;1.53;;;;;;;6.52;88.11;95721.72;6160538;23;20595;-82
2023/11/08 07:58:42;;;;;;;5.03;1.37;;;;;;;6.45;88.13;95734.31;6159646;23;20183;-79
2023/11/08 08:01:09;;;;;;;3.73;1.27;;;;;;;6.53;87.95;95734.50;6160510;23;20499;-78
2023/11/08 08:03:35;;;;;;;2.13;1.33;;;;;;;6.69;87.38;95730.75;6160031;23;20290;-81
2023/11/08 08:06:03;;;;;;;2.70;1.70;;;;;;;6.79;87.13;95735.06;6158376;23;20158;-81
2023/11/08 08:08:29;;;;;;;2.30;1.80;;;;;;;6.98;86.33;95726.72;6159030;23;20205;-81
2023/11/08 08:10:54;;;;;;;2.70;1.20;;;;;;;6.93;85.58;95722.84;6134331;23;20170;-80
2023/11/08 08:13:20;;;;;;;2.30;1.37;;;;;;;7.03;85.75;95722.00;6159247;23;20151;-81
2023/11/08 08:15:45;;;;;;;2.80;1.30;;;;;;;7.12;85.65;95728.19;6134364;23;20158;-80
2023/11/08 08:18:11;;;;;;;2.47;1.40;;;;;;;7.21;84.99;95721.47;6160130;23;20154;-79
2023/11/08 08:20:39;;;;;;;3.17;1.43;;;;;;;7.51;84.77;95718.19;6160486;23;20528;-80
2023/11/08 08:23:09;;;;;;;2.17;1.30;;;;;;;7.52;84.08;95720.66;6134995;23;20165;-80
2023/11/08 08:25:39;;;;;;;4.53;1.27;;;;;;;7.60;83.88;95720.88;6159863;23;20155;-80
2023/11/08 08:28:05;;;;;;;1.43;1.33;;;;;;;7.55;83.95;95720.41;6159659;23;20174;-80
2023/11/08 08:30:30;;;;;;;3.23;1.10;;;;;;;7.26;84.12;95720.19;6134255;23;20175;-79
2023/11/08 08:32:58;;;;;;;4.17;1.53;;;;;;;7.14;84.35;95723.72;6183691;23;20173;-81
2023/11/08 08:35:24;;;;;;;2.33;1.23;;;;;;;7.32;83.83;95724.00;6157881;23;20241;-80
2023/11/08 08:37:49;;;;;;;1.83;1.40;;;;;;;7.35;84.00;95724.59;6159470;23;20661;-81
2023/11/08 08:40:15;;;;;;;1.87;1.17;;;;;;;7.49;83.53;95736.41;6134078;23;20190;-81
2023/11/08 08:42:42;;;;;;;3.60;1.40;;;;;;;7.66;83.56;95737.63;6158563;23;20162;-79
2023/11/08 08:45:08;;;;;;;1.40;1.00;;;;;;;7.77;84.57;95739.31;6133870;23;20167;-80
2023/11/08 08:47:34;;;;;;;1.30;1.10;;;;;;;7.58;84.07;95735.66;6133995;23;20159;-82
2023/11/08 08:50:01;;;;;;;2.03;1.20;;;;;;;7.87;83.54;95729.88;6159332;23;20175;-81
2023/11/08 08:52:26;;;;;;;2.50;1.10;;;;;;;7.86;83.03;95735.97;6160649;23;20363;-79
2023/11/08 08:54:51;;;;;;;3.10;1.17;;;;;;;8.02;82.04;95728.59;6136749;23;20254;-77
2023/11/08 08:57:17;;;;;;;3.00;1.20;;;;;;;8.07;81.73;95731.63;6187652;23;20454;-78
2023/11/08 08:59:43;;;;;;;1.40;1.03;;;;;;;8.03;82.08;95730.22;6136855;23;20279;-78
2023/11/08 09:02:09;;;;;;;3.37;1.20;;;;;;;8.13;81.42;95728.53;6161211;23;20158;-79
2023/11/08 09:04:34;;;;;;;2.93;1.20;;;;;;;8.25;81.13;95726.69;6160798;23;20165;-82
2023/11/08 09:07:00;;;;;;;1.80;1.20;;;;;;;8.45;81.03;95732.78;6160632;23;20216;-81
2023/11/08 09:09:25;;;;;;;3.50;1.33;;;;;;;8.66;80.19;95725.00;6160575;23;20233;-81
2023/11/08 09:11:51;;;;;;;2.93;1.63;;;;;;;8.69;80.12;95725.53;6135689;23;20163;-80
2023/11/08 09:14:18;;;;;;;1.43;1.27;;;;;;;8.85;78.68;95726.81;6136106;23;20190;-82
2023/11/08 09:16:43;;;;;;;4.17;1.40;;;;;;;8.89;79.29;95738.53;6166027;23;20167;-80
2023/11/08 09:19:09;;;;;;;3.33;2.77;;;;;;;9.12;77.55;95734.78;6198613;23;20198;-82
2023/11/08 09:21:34;;;;;;;1.20;1.03;;;;;;;9.01;78.14;95729.69;6172711;23;20190;-82
2023/11/08 09:24:00;;;;;;;1.83;1.10;;;;;;;9.39;76.71;95730.72;6167431;23;20151;-83
2023/11/08 09:26:26;;;;;;;1.67;1.33;;;;;;;9.58;76.66;95728.94;6141869;23;20181;-83
2023/11/08 09:28:51;;;;;;;3.37;1.60;;;;;;;9.49;75.42;95736.72;6164850;23;20222;-81
2023/11/08 09:31:16;;;;;;;4.07;2.20;;;;;;;9.85;75.03;95743.78;6140646;23;20609;-81
2023/11/08 09:33:42;;;;;;;1.10;0.80;;;;;;;9.63;71.78;95734.53;6167326;23;20157;-82
2023/11/08 09:36:07;;;;;;;1.13;0.90;;;;;;;9.38;71.43;95740.25;6164700;23;20495;-81
2023/11/08 09:38:33;;;;;;;3.07;1.00;;;;;;;9.73;71.66;95733.72;6165258;23;20178;-83
2023/11/08 09:40:58;;;;;;;0.77;0.77;;;;;;;9.78;69.45;95742.69;6164817;23;20171;-81
2023/11/08 09:43:24;;;;;;;3.23;1.70;;;;;;;9.84;69.89;95741.34;6163975;23;20181;-83
2023/11/08 09:45:51;;;;;;;2.70;1.33;;;;;;;9.93;69.75;95743.91;6139877;23;20165;-81
2023/11/08 09:48:18;;;;;;;1.50;0.93;;;;;;;9.70;69.47;95745.16;6164288;23;20147;-83
2023/11/08 09:50:46;;;;;;;2.10;0.70;;;;;;;9.81;68.26;95742.44;6164389;23;20182;-81
2023/11/08 09:53:12;;;;;;;1.23;0.77;;;;;;;9.50;69.18;95736.56;6138851;23;20158;-83
2023/11/08 09:55:37;;;;;;;2.10;0.70;;;;;;;9.72;67.98;95743.28;6162163;23;20169;-81
2023/11/08 09:58:06;;;;;;;1.80;1.10;;;;;;;9.74;68.86;95741.34;6162837;23;20503;-83
2023/11/08 10:00:31;;;;;;;1.37;0.80;;;;;;;9.75;68.79;95742.16;6162718;23;20189;-83
2023/11/08 10:02:57;;;;;;;2.27;0.90;;;;;;;9.81;68.77;95742.44;6163294;23;20159;-83
2023/11/08 10:05:23;;;;;;;2.57;1.17;;;;;;;9.62;67.76;95732.06;6163274;23;20158;-81
2023/11/08 10:07:48;;;;;;;1.80;0.83;;;;;;;9.91;68.88;95737.25;6139269;23;20162;-81
2023/11/08 10:10:13;;;;;;;1.10;0.73;;;;;;;10.19;67.87;95740.75;6163648;23;20269;-81
2023/11/08 10:12:39;;;;;;;1.87;1.10;;;;;;;10.15;66.68;95737.59;6163436;23;20741;-83
2023/11/08 10:15:06;;;;;;;1.03;0.60;;;;;;;10.13;64.17;95736.09;6138427;23;20246;-81
2023/11/08 10:17:39;;;;;;;2.07;1.03;;;;;;;10.11;63.25;95728.47;6190133;23;20630;-80
2023/11/08 10:20:08;;;;;;;0.40;0.37;;;;;;;10.10;62.24;95728.59;6163470;23;20183;-83
2023/11/08 10:22:34;;;;;;;2.03;0.53;;;;;;;10.19;61.45;95727.75;6190424;23;20160;-82
2023/11/08 10:25:02;;;;;;;1.30;0.70;;;;;;;10.52;62.22;95734.25;6162467;23;20166;-82
2023/11/08 10:27:28;;;;;;;3.40;2.40;;;;;;;10.44;59.97;95723.75;6138214;23;20182;-83
2023/11/08 10:30:11;;;;;;;0.90;0.50;;;;;;;10.16;60.55;95731.47;6187321;23;20189;-83
2023/11/08 10:32:37;;;;;;;1.10;0.90;;;;;;;10.44;60.05;95728.94;6186948;23;20162;-82
2023/11/08 10:35:19;;;;;;;0.73;0.73;;;;;;;10.57;59.17;95706.06;6162307;23;20497;-80
2023/11/08 10:37:45;;;;;;;0.40;0.40;;;;;;;10.51;59.34;95724.81;6138159;23;20150;-82
2023/11/08 10:40:12;;;;;;;0.37;0.37;;;;;;;10.36;59.59;95711.47;6138105;23;20183;-81
2023/11/08 10:42:38;;;;;;;1.07;0.53;;;;;;;10.14;59.41;95714.38;6161881;23;20650;-82
2023/11/08 10:45:11;;;;;;;0.37;0.37;;;;;;;10.12;60.11;95704.13;6160849;23;20209;-83
2023/11/08 10:47:37;;;;;;;0.47;0.30;;;;;;;10.18;60.33;95700.19;6161841;23;20150;-81
2023/11/08 10:50:05;;;;;;;0.77;0.50;;;;;;;10.44;60.25;95698.59;6136101;23;20261;-81
2023/11/08 10:52:32;;;;;;;1.33;0.40;;;;;;;10.29;59.82;95699.22;6136392;23;20665;-80
2023/11/08 10:54:57;;;;;;;0.50;0.40;;;;;;;9.97;59.71;95691.75;6185722;23;20174;-81
2023/11/08 10:57:27;;;;;;;0.60;0.60;;;;;;;10.41;60.42;95685.06;6160803;23;20186;-79
2023/11/08 10:59:56;;;;;;;1.23;0.90;;;;;;;10.94;59.66;95680.00;6161143;23;20277;-81
2023/11/08 11:02:28;;;;;;;0.93;0.50;;;;;;;10.98;58.86;95677.97;6135622;23;20506;-82
2023/11/08 11:05:00;;;;;;;0.83;0.50;;;;;;;10.76;58.96;95681.75;6134956;23;20193;-82
2023/11/08 11:07:26;;;;;;;2.07;0.60;;;;;;;10.99;58.23;95679.59;6135909;23;20189;-81
2023/11/08 11:09:54;;;;;;;0.60;0.40;;;;;;;10.35;57.99;95677.88;6160990;23;20174;-82
2023/11/08 11:12:25;;;;;;;0.50;0.50;;;;;;;10.97;59.00;95677.16;6137200;23;20185;-83
2023/11/08 11:14:52;;;;;;;4.10;3.70;;;;;;;11.00;57.30;95671.66;6138233;23;20155;-82
2023/11/08 11:17:30;;;;;;;1.90;1.70;;;;;;;10.90;58.13;95676.09;6159961;23;20509;-81
2023/11/08 11:20:00;;;;;;;2.00;0.80;;;;;;;10.52;58.31;95682.31;6159334;23;20218;-81
2023/11/08 11:22:26;;;;;;;0.97;0.60;;;;;;;10.47;59.02;95674.94;6159004;23;20650;-81
2023/11/08 11:24:53;;;;;;;1.40;0.80;;;;;;;10.43;58.77;95680.59;6158985;23;20158;-81
2023/11/08 11:27:35;;;;;;;1.43;0.73;;;;;;;10.54;58.90;95676.97;6187000;23;20162;-79
2023/11/08 11:30:26;;;;;;;3.23;0.60;;;;;;;10.49;59.50;95660.03;6185634;23;20178;-81
2023/11/08 11:32:53;;;;;;;0.53;0.53;;;;;;;10.43;59.96;95665.00;6131469;23;20486;-80
2023/11/08 11:35:20;;;;;;;2.90;1.57;;;;;;;10.30;59.63;95662.72;6158954;23;20158;-79
2023/11/08 11:38:12;;;;;;;1.03;0.40;;;;;;;10.48;60.11;95662.78;6160085;23;20237;-81